Time;durP1;ratioP1;P1;durP2;ratioP2;P2;SDS_P1;SDS_P2;PMS_P1;PMS_P2;Temp;Humidity;BMP_temperature;BMP_pressure;BME280_temperature;BME280_humidity;BME280_pressure;Samples;Min_cycle;Max_cycle;Signal;HPM_P1;HPM_P2
2023/10/09 17:28:31;;;;;;;;;8.00;3.33;;;;;26.34;34.66;102054.09;5014423;23;45702;-82
2023/10/09 17:31:02;;;;;;;;;4.00;4.00;;;;;26.34;35.02;102045.25;4874917;29;45570;-82
2023/10/09 17:33:27;;;;;;;;;5.33;3.67;;;;;26.34;35.36;102046.09;4875616;29;45808;-86
2023/10/09 17:35:53;;;;;;;;;4.00;4.00;;;;;26.40;35.33;102052.56;4878718;29;45443;-86
2023/10/09 17:38:19;;;;;;;;;6.67;5.33;;;;;26.53;35.59;102070.66;4874292;29;45366;-89
2023/10/09 17:40:51;;;;;;;;;4.33;4.00;;;;;26.34;35.18;102038.09;4876821;29;45456;-86
2023/10/09 17:43:20;;;;;;;;;7.00;5.00;;;;;26.61;35.86;102069.75;4880724;29;46407;-87
2023/10/09 17:45:46;;;;;;;;;3.00;3.00;;;;;26.65;35.59;102068.34;4876378;29;45471;-90
2023/10/09 17:48:11;;;;;;;;;5.00;4.00;;;;;26.54;35.47;102050.97;4862083;29;45440;-89
2023/10/09 17:50:43;;;;;;;;;5.00;5.00;;;;;26.71;35.90;102066.78;4862648;29;45340;-93
2023/10/09 17:53:08;;;;;;;;;4.00;4.00;;;;;26.60;36.09;102047.56;4862841;29;46408;-94
2023/10/09 17:55:35;;;;;;;;;8.00;6.00;;;;;26.67;36.23;102046.84;4862631;29;45372;-91
2023/10/09 17:58:06;;;;;;;;;6.67;5.00;;;;;26.76;35.90;102064.41;4862137;29;45434;-90
2023/10/09 18:00:34;;;;;;;;;6.33;5.67;;;;;26.69;36.12;102050.13;4862682;29;45425;-93
2023/10/09 18:03:00;;;;;;;;;8.00;6.00;;;;;26.69;36.06;102056.31;4864659;29;47415;-90
2023/10/09 18:05:29;;;;;;;;;5.00;5.00;;;;;26.83;35.72;102077.84;4861303;29;45358;-93
2023/10/09 18:07:56;;;;;;;;;7.33;4.67;;;;;26.85;36.10;102081.19;4864938;29;45374;-90
2023/10/09 18:10:22;;;;;;;;;5.00;4.67;;;;;26.88;35.91;102082.66;4864385;29;45572;-86
2023/10/09 18:12:49;;;;;;;;;8.00;5.00;;;;;26.68;36.58;102037.78;4876430;29;46090;-84
2023/10/09 18:15:15;;;;;;;;;5.33;5.00;;;;;26.74;35.92;102047.75;4896428;29;45390;-80
2023/10/09 18:17:40;;;;;;;;;7.33;5.00;;;;;26.85;36.43;102057.16;4893852;28;45642;-83
2023/10/09 18:20:07;;;;;;;;;4.67;4.00;;;;;26.75;36.30;102044.09;4897918;28;45502;-84
2023/10/09 18:22:35;;;;;;;;;6.33;6.00;;;;;26.96;36.62;102075.38;4898458;28;45563;-85
2023/10/09 18:25:01;;;;;;;;;6.67;5.67;;;;;26.94;36.20;102073.91;4897812;28;45557;-83
2023/10/09 18:27:28;;;;;;;;;7.00;7.00;;;;;26.92;35.99;102075.94;4896736;29;45522;-82
2023/10/09 18:29:53;;;;;;;;;7.00;7.00;;;;;26.87;36.05;102064.97;4895453;28;45425;-83
2023/10/09 18:32:23;;;;;;;;;6.33;6.33;;;;;26.83;36.74;102070.66;4898049;28;45482;-83
2023/10/09 18:34:48;;;;;;;;;8.67;8.00;;;;;26.89;36.98;102076.28;4897783;28;45389;-82
2023/10/09 18:37:14;;;;;;;;;7.33;6.00;;;;;26.91;37.28;102082.25;4897248;28;45417;-80
2023/10/09 18:39:39;;;;;;;;;10.00;7.00;;;;;26.62;37.35;102048.19;4896946;28;45443;-81
2023/10/09 18:42:06;;;;;;;;;9.67;7.67;;;;;26.72;37.41;102052.44;4897087;29;46589;-81
2023/10/09 18:44:33;;;;;;;;;7.67;7.33;;;;;26.87;37.66;102081.00;4896764;28;45773;-78
2023/10/09 18:46:59;;;;;;;;;9.33;8.00;;;;;26.68;37.59;102059.16;4897319;28;45572;-82
2023/10/09 18:49:26;;;;;;;;;12.00;8.33;;;;;26.49;37.83;102027.47;4889879;28;45547;-82
2023/10/09 18:51:52;;;;;;;;;12.33;10.33;;;;;26.84;37.63;102091.03;4881591;29;46909;-82
2023/10/09 18:54:18;;;;;;;;;6.33;5.67;;;;;26.66;38.02;102063.84;4881801;29;46634;-80
2023/10/09 18:56:43;;;;;;;;;8.67;8.00;;;;;26.82;38.21;102087.72;4881688;29;45348;-80
2023/10/09 18:59:09;;;;;;;;;9.00;7.67;;;;;26.77;37.81;102087.44;4882521;29;45399;-81
2023/10/09 19:01:36;;;;;;;;;10.00;8.00;;;;;26.65;38.17;102062.22;4880412;29;46255;-79
2023/10/09 19:04:01;;;;;;;;;8.00;8.00;;;;;26.70;37.56;102078.50;4880469;29;45353;-80
2023/10/09 19:06:28;;;;;;;;;8.00;7.00;;;;;26.76;38.14;102084.94;4880801;29;45188;-79
2023/10/09 19:08:55;;;;;;;;;11.00;8.33;;;;;26.77;37.85;102083.94;4881062;29;45319;-80
2023/10/09 19:11:23;;;;;;;;;12.67;8.00;;;;;26.47;37.67;102042.84;4879906;29;46213;-85
2023/10/09 19:13:49;;;;;;;;;7.00;7.00;;;;;26.77;37.80;102081.25;4881044;29;45459;-88
2023/10/09 19:16:15;;;;;;;;;9.33;7.67;;;;;26.80;38.41;102078.22;4880480;29;45433;-87
2023/10/09 19:18:40;;;;;;;;;8.00;8.00;;;;;26.82;38.78;102078.88;4880660;29;45491;-84
2023/10/09 19:21:10;;;;;;;;;8.67;7.67;;;;;26.86;39.38;102080.16;4879371;29;47390;-78
2023/10/09 19:23:36;;;;;;;;;8.67;7.00;;;;;26.86;39.72;102074.81;4879534;29;45645;-80
2023/10/09 19:26:05;;;;;;;;;6.00;6.00;;;;;26.78;39.72;102048.22;4879806;29;45402;-82
2023/10/09 19:28:30;;;;;;;;;8.67;7.00;;;;;26.92;39.35;102071.41;4875689;29;45408;-81
2023/10/09 19:31:05;;;;;;;;;9.33;7.67;;;;;26.99;39.77;102079.50;4881543;29;46440;-83
2023/10/09 19:33:31;;;;;;;;;7.33;7.33;;;;;27.02;40.08;102078.31;4881470;29;45473;-84
2023/10/09 19:36:03;;;;;;;;;7.00;6.00;;;;;27.04;40.43;102073.63;4880373;29;45409;-83
2023/10/09 19:38:30;;;;;;;;;7.00;6.33;;;;;26.96;40.41;102062.00;4881505;29;45566;-82
2023/10/09 19:40:55;;;;;;;;;6.33;6.33;;;;;27.08;40.45;102080.25;4880896;29;47377;-80
2023/10/09 19:43:21;;;;;;;;;8.67;7.00;;;;;27.09;40.15;102078.41;4881597;29;45490;-82
2023/10/09 19:45:48;;;;;;;;;5.67;5.00;;;;;27.05;40.20;102061.94;4881379;29;45319;-83
2023/10/09 19:48:13;;;;;;;;;6.00;6.00;;;;;27.04;40.42;102063.75;4881570;29;45449;-84
2023/10/09 19:50:39;;;;;;;;;7.00;7.00;;;;;27.06;40.25;102056.38;4881180;29;46241;-82
2023/10/09 19:53:04;;;;;;;;;7.67;7.00;;;;;27.19;40.15;102079.00;4880354;29;45644;-78
2023/10/09 19:55:31;;;;;;;;;6.00;5.67;;;;;27.22;40.20;102073.25;4871336;29;45584;-81
2023/10/09 19:57:57;;;;;;;;;8.00;7.00;;;;;27.24;40.20;102070.41;4879455;29;45460;-79
2023/10/09 20:00:23;;;;;;;;;7.33;7.33;;;;;27.05;40.81;102040.56;4880390;29;46918;-79
2023/10/09 20:02:49;;;;;;;;;6.00;5.67;;;;;27.27;40.99;102065.50;4880939;29;45488;-79
2023/10/09 20:05:15;;;;;;;;;5.00;5.00;;;;;27.25;40.60;102069.38;4882275;29;45552;-83
2023/10/09 20:07:41;;;;;;;;;10.00;6.33;;;;;27.29;40.45;102068.03;4881370;29;45516;-84
2023/10/09 20:10:07;;;;;;;;;9.00;6.00;;;;;27.22;41.01;102053.75;4881235;29;45599;-84
2023/10/09 20:12:33;;;;;;;;;6.00;6.00;;;;;27.28;40.51;102064.50;4880670;29;45490;-82
2023/10/09 20:15:00;;;;;;;;;7.67;5.67;;;;;27.31;40.52;102076.66;4881622;29;45317;-84
2023/10/09 20:17:26;;;;;;;;;10.33;7.33;;;;;27.28;41.19;102066.34;4882435;29;45316;-83
2023/10/09 20:19:53;;;;;;;;;7.00;7.00;;;;;27.27;41.03;102062.84;4880881;29;46524;-87
2023/10/09 20:22:18;;;;;;;;;5.67;5.67;;;;;27.27;41.47;102065.50;4872181;29;45447;-83
2023/10/09 20:24:46;;;;;;;;;6.00;5.67;;;;;27.28;40.83;102067.19;4881013;29;45439;-89
2023/10/09 20:27:12;;;;;;;;;6.67;5.67;;;;;27.34;40.81;102080.81;4880569;29;45490;-79
2023/10/09 20:29:39;;;;;;;;;9.33;7.67;;;;;27.34;41.52;102078.97;4879590;29;46008;-80
2023/10/09 20:32:11;;;;;;;;;6.33;6.00;;;;;27.10;41.06;102038.16;4880663;29;45409;-83
2023/10/09 20:34:36;;;;;;;;;8.00;5.67;;;;;27.17;41.59;102055.13;4880693;29;45472;-83
2023/10/09 20:37:03;;;;;;;;;5.33;4.33;;;;;27.12;41.49;102051.31;4882179;29;45458;-91
2023/10/09 20:39:29;;;;;;;;;6.67;5.67;;;;;27.33;41.15;102071.97;4881721;29;48501;-94
2023/10/09 20:41:55;;;;;;;;;6.00;6.00;;;;;27.38;41.04;102084.75;4882217;29;45409;-90
2023/10/09 20:44:20;;;;;;;;;7.67;7.00;;;;;27.34;41.56;102078.13;4882798;29;45432;-90
2023/10/09 20:46:47;;;;;;;;;7.00;6.00;;;;;27.25;41.68;102056.88;4881888;29;45466;-89
2023/10/09 20:49:14;;;;;;;;;6.00;6.00;;;;;27.33;41.03;102071.97;4881212;29;46369;-81
2023/10/09 20:51:40;;;;;;;;;8.33;7.00;;;;;27.34;41.17;102072.78;4880565;29;45484;-80
2023/10/09 20:54:05;;;;;;;;;4.00;4.00;;;;;27.24;41.69;102060.56;4880489;29;45415;-83
2023/10/09 20:56:36;;;;;;;;;6.67;6.00;;;;;27.41;41.74;102081.72;4881165;29;45472;-81
2023/10/09 20:59:02;;;;;;;;;7.67;6.00;;;;;27.42;41.72;102082.56;4879261;29;46027;-82
2023/10/09 21:01:27;;;;;;;;;7.67;5.00;;;;;27.42;41.81;102091.41;4880261;29;45438;-80
2023/10/09 21:03:52;;;;;;;;;8.33;5.67;;;;;27.43;41.68;102082.34;4880223;29;45505;-81
2023/10/09 21:06:20;;;;;;;;;4.33;4.33;;;;;27.44;41.75;102084.03;4880506;29;45416;-82
2023/10/09 21:08:47;;;;;;;;;7.33;6.00;;;;;27.44;41.61;102085.84;4879606;29;46261;-83
2023/10/09 21:11:13;;;;;;;;;8.00;6.00;;;;;27.42;41.81;102083.38;4880575;29;45551;-84
2023/10/09 21:13:39;;;;;;;;;5.00;5.00;;;;;27.38;41.92;102084.75;4880536;29;45562;-84
2023/10/09 21:16:17;;;;;;;;;8.67;8.00;;;;;27.05;41.16;102030.72;4880121;29;45396;-83
